Gravel Hill, Arkansas
Current Conditions -  °F | °C
As of 9:56 AM on Thursday 30 Oct 2014 (Local Time) from KSRC Reporting Station
Clear Clear  
Wind Chill: 56°   Ceiling: Unl
Heat Index: 56°   Visibility: 10mi
Dew Point: 42°   Wind: 5mph
Humidity: 60%   Direction: 120°ESE
Pressure: 30.18"   Gusts: NA
Location:  35.2212°N, 92.068°W
Report Text: KSRC 301456Z AUTO 12004KT 10SM CLR 13/06 A3018 RMK AO2 SLP228 T01330056 50001 TSNO
Loading
Personal Weather Stations






























Interactive Weather Map
Tropical Storm Tracking
New forecast layout! Learn more

10-Day Weather Forecast

Advertisements
Track Severe Weather on mobile